Terminal Aerodrome Forecast
Issued by NWS

Home | Current Version | Previous Version | Text Only | Print | Product List | Glossary On
Versions: 1 2 3 4 5 6 7 8 9 10 11 12 13 14
000
FTUS45 KABQ 270520
TAFGUP
TAF
KGUP 270520Z 2706/2806 VRB03KT P6SM BKN080
     FM271600 25006KT P6SM SCT080
     FM272000 23006KT P6SM VCSH BKN070
     FM280200 05005KT P6SM SCT100=

USA.gov is the U.S. government's official web portal to all federal, state and local government web resources and services.